createdAt,value
2019-05-09T14:25:59.039Z,33.40
2019-05-09T14:28:28.707Z,33.60
2019-05-09T14:30:59.464Z,33.70
2019-05-09T14:33:29.594Z,33.10
2019-05-09T14:35:59.467Z,33.50
2019-05-09T14:38:28.850Z,33.80
2019-05-09T14:40:59.559Z,33.90
2019-05-09T14:43:28.863Z,33.90
2019-05-09T14:45:58.173Z,33.90
2019-05-09T14:48:28.694Z,34.00
2019-05-09T14:50:59.774Z,34.30
2019-05-09T14:53:29.347Z,33.60
2019-05-09T14:56:01.584Z,34.00
2019-05-09T14:58:35.231Z,33.40
2019-05-09T15:01:04.108Z,34.00
2019-05-09T15:03:33.132Z,34.00
2019-05-09T15:06:03.944Z,34.00
2019-05-09T15:08:32.939Z,34.00
2019-05-09T15:11:02.546Z,33.90
2019-05-09T15:13:32.165Z,33.90
2019-05-09T15:16:00.915Z,33.80
2019-05-09T15:18:30.067Z,33.90
2019-05-09T15:20:58.820Z,33.90
2019-05-09T15:23:29.391Z,34.30
2019-05-09T15:26:00.582Z,33.50
2019-05-09T15:28:29.685Z,33.90
2019-05-09T15:30:59.519Z,33.90
2019-05-09T15:33:30.191Z,34.20
2019-05-09T15:35:59.144Z,34.20
2019-05-09T15:38:29.048Z,33.90
2019-05-09T15:40:58.810Z,33.90
2019-05-09T15:43:28.161Z,33.90
2019-05-09T15:45:58.331Z,33.90
2019-05-09T15:48:31.207Z,33.90
2019-05-09T15:51:00.583Z,34.00
2019-05-09T15:53:33.019Z,34.10
2019-05-09T15:56:08.188Z,34.20
2019-05-09T15:58:38.496Z,34.30
2019-05-09T16:01:08.390Z,34.00
2019-05-09T16:03:39.019Z,34.30
2019-05-09T16:08:39.559Z,33.00
2019-05-09T16:11:08.940Z,32.60
2019-05-09T16:13:41.749Z,32.30
2019-05-09T16:16:11.423Z,31.60
2019-05-09T16:18:42.902Z,32.00
2019-05-09T16:21:11.695Z,31.20
2019-05-09T16:23:41.291Z,31.70
2019-05-09T16:26:10.387Z,31.70
2019-05-09T16:28:39.922Z,31.60
2019-05-09T16:31:10.638Z,31.60
2019-05-09T16:33:39.514Z,31.50
2019-05-09T16:36:09.394Z,31.50
2019-05-09T16:38:45.666Z,31.40
2019-05-09T16:41:09.175Z,31.40
2019-05-09T16:43:39.291Z,31.40
2019-05-09T16:46:09.238Z,31.40
2019-05-09T16:48:38.522Z,31.40
2019-05-09T16:51:08.018Z,31.30
2019-05-09T16:53:37.429Z,31.30
2019-05-09T16:56:08.224Z,31.30
2019-05-09T16:58:40.844Z,31.20
2019-05-09T17:01:10.575Z,31.20
2019-05-09T17:03:39.645Z,31.20
2019-05-09T17:06:09.452Z,31.20
2019-05-09T17:08:39.365Z,31.00
2019-05-09T17:11:10.177Z,30.80
2019-05-09T17:13:39.400Z,30.50
2019-05-09T17:16:09.133Z,30.30
2019-05-09T17:18:38.622Z,30.20
2019-05-09T17:21:18.426Z,30.00
2019-05-09T17:23:40.472Z,29.90
2019-05-09T17:26:09.604Z,29.80
2019-05-09T17:28:38.885Z,29.70
2019-05-09T17:31:08.752Z,29.70
2019-05-09T17:33:38.228Z,29.60
2019-05-09T17:36:07.526Z,29.50
2019-05-09T17:38:38.349Z,29.40
2019-05-09T17:41:11.349Z,29.40
2019-05-09T17:43:47.570Z,29.40
2019-05-09T17:46:34.670Z,29.30
2019-05-09T17:49:04.058Z,29.30
2019-05-09T17:51:36.357Z,29.20
2019-05-09T17:54:09.298Z,29.20
2019-05-09T17:56:38.501Z,29.20
2019-05-09T17:59:08.561Z,29.10
2019-05-09T18:01:38.132Z,29.10
2019-05-09T18:04:09.230Z,29.10
2019-05-09T18:06:38.090Z,29.00
2019-05-09T18:09:08.586Z,29.00
2019-05-09T18:11:37.795Z,28.90
2019-05-09T18:14:08.371Z,28.90
2019-05-09T18:16:38.926Z,28.90
2019-05-09T18:19:08.434Z,28.80
2019-05-09T18:21:50.277Z,28.80
2019-05-09T18:24:10.760Z,28.80
2019-05-09T18:26:40.387Z,28.80
2019-05-09T18:29:09.665Z,28.80
2019-05-09T18:31:39.269Z,28.90
2019-05-09T18:34:08.680Z,29.00
2019-05-09T18:36:38.594Z,29.00
2019-05-09T18:39:10.966Z,29.00
2019-05-09T18:41:40.064Z,28.90
2019-05-09T18:44:09.456Z,28.90
2019-05-09T18:46:38.760Z,28.80
2019-05-09T18:49:07.957Z,28.80
2019-05-09T18:51:37.456Z,28.90
2019-05-09T18:54:06.993Z,29.00
2019-05-09T18:56:36.799Z,29.00
2019-05-09T18:59:06.669Z,29.00
2019-05-09T19:01:36.249Z,29.00
2019-05-09T19:04:05.205Z,29.00
2019-05-09T19:06:34.818Z,29.00
2019-05-09T19:09:04.389Z,28.90
2019-05-09T19:11:33.477Z,29.00
2019-05-09T19:14:02.981Z,29.10
2019-05-09T19:16:32.375Z,29.00
2019-05-09T19:19:01.666Z,29.00
2019-05-09T19:21:30.705Z,29.00
2019-05-09T19:24:18.262Z,29.10
2019-05-09T19:26:41.214Z,29.10
2019-05-09T19:29:10.066Z,29.00
2019-05-09T19:31:39.201Z,29.00
2019-05-09T19:34:08.506Z,29.00
2019-05-09T19:36:38.205Z,29.00
2019-05-09T19:39:12.142Z,29.10
2019-05-09T19:41:44.944Z,29.10
2019-05-09T19:44:14.502Z,29.10
2019-05-09T19:46:44.210Z,29.10
2019-05-09T19:49:13.649Z,29.10
2019-05-09T19:51:42.848Z,29.10
2019-05-09T19:54:13.574Z,29.10
2019-05-09T19:56:42.971Z,29.20
2019-05-09T19:59:12.563Z,29.10
2019-05-09T20:01:42.085Z,29.00
2019-05-09T20:04:11.756Z,29.00
2019-05-09T20:06:41.192Z,29.10
2019-05-09T20:09:10.704Z,29.10
2019-05-09T20:11:40.522Z,29.10
2019-05-09T20:14:10.112Z,29.10
2019-05-09T20:16:39.529Z,29.10
2019-05-09T20:19:08.857Z,29.10
2019-05-09T20:21:38.423Z,29.10
2019-05-09T20:24:09.354Z,29.10
2019-05-09T20:26:39.231Z,29.20
2019-05-09T20:29:08.107Z,29.10
2019-05-09T20:31:37.901Z,29.20
2019-05-09T20:34:06.922Z,29.20
2019-05-09T20:36:35.841Z,29.20
2019-05-09T20:39:04.858Z,29.20
2019-05-09T20:41:37.238Z,29.20
2019-05-09T20:44:06.637Z,29.20
2019-05-09T20:46:36.377Z,29.20
2019-05-09T20:49:05.774Z,29.30
2019-05-09T20:51:35.286Z,29.30
2019-05-09T20:54:19.758Z,29.30
2019-05-09T20:56:35.758Z,29.30
2019-05-09T20:59:05.549Z,29.30
2019-05-09T21:01:34.645Z,29.30
2019-05-09T21:04:03.806Z,29.30
2019-05-09T21:06:37.146Z,29.20
2019-05-09T21:09:06.858Z,29.20
2019-05-09T21:11:36.166Z,29.20
2019-05-09T21:14:05.555Z,29.20
2019-05-09T21:16:44.174Z,29.20
2019-05-09T21:19:13.470Z,29.20
2019-05-09T21:21:42.977Z,29.20
2019-05-09T21:24:11.968Z,29.30
2019-05-09T21:26:46.930Z,29.20
2019-05-09T21:29:17.655Z,29.30
2019-05-09T21:31:46.952Z,29.20
2019-05-09T21:34:19.183Z,29.30
2019-05-09T21:36:49.489Z,29.20
2019-05-09T21:39:18.748Z,29.30
2019-05-09T21:41:48.504Z,29.20
2019-05-09T21:44:17.638Z,29.20
2019-05-09T21:46:47.174Z,29.30
2019-05-09T21:49:16.712Z,29.40
2019-05-09T21:51:49.560Z,29.50
2019-05-09T21:54:19.159Z,29.70
2019-05-09T21:56:48.798Z,29.90
2019-05-09T21:59:18.077Z,30.10
2019-05-09T22:01:47.371Z,30.30
2019-05-09T22:04:17.270Z,30.40
2019-05-09T22:06:46.884Z,30.80
2019-05-09T22:09:16.309Z,31.40
2019-05-09T22:11:45.688Z,32.00
2019-05-09T22:14:14.901Z,32.40
2019-05-09T22:16:44.372Z,32.80
2019-05-09T22:19:13.273Z,33.10
2019-05-09T22:21:42.910Z,33.30
2019-05-09T22:24:12.698Z,33.50
2019-05-09T22:26:42.528Z,33.60
2019-05-09T22:29:11.736Z,33.80
2019-05-09T22:31:41.241Z,33.90
2019-05-09T22:34:10.329Z,34.00
2019-05-09T22:36:39.827Z,34.10
2019-05-09T22:39:09.446Z,34.20
2019-05-09T22:41:39.166Z,34.20
2019-05-09T22:44:08.537Z,34.30
